Time;durP1;ratioP1;P1;durP2;ratioP2;P2;SDS_P1;SDS_P2;PMS_P1;PMS_P2;Temp;Humidity;BMP_temperature;BMP_pressure;BME280_temperature;BME280_humidity;BME280_pressure;Samples;Min_cycle;Max_cycle;Signal;HPM_P1;HPM_P2
2024/04/06 00:01:58;;;;;;;;;;;15.00;99.90;;;15.03;79.39;100105.63;5093760;28;19924;-84
2024/04/06 00:04:24;;;;;;;;;;;14.90;99.90;;;15.01;79.33;100111.28;5079392;28;19987;-84
2024/04/06 00:06:52;;;;;;;;;;;14.90;99.90;;;15.00;79.39;100115.03;5061948;28;19956;-84
2024/04/06 00:09:18;;;;;;;;;;;14.90;99.90;;;15.00;79.48;100106.16;5079457;28;19982;-84
2024/04/06 00:11:47;;;;;;;;;;;14.90;99.90;;;14.99;79.17;100104.53;5090273;28;20390;-84
2024/04/06 00:14:13;;;;;;;;;;;14.90;99.90;;;14.99;79.27;100099.16;5056856;28;19924;-84
2024/04/06 00:16:40;;;;;;;;;;;14.90;99.90;;;14.94;79.32;100098.03;5056690;28;19924;-84
2024/04/06 00:19:06;;;;;;;;;;;14.90;99.90;;;14.96;79.30;100095.09;5059683;28;20378;-84
2024/04/06 00:21:34;;;;;;;;;;;14.90;99.90;;;14.97;79.30;100093.22;5062759;28;20341;-84
2024/04/06 00:24:00;;;;;;;;;;;14.90;99.90;;;14.96;79.29;100088.91;5064968;28;19925;-84
2024/04/06 00:26:28;;;;;;;;;;;14.90;99.90;;;14.94;79.42;100092.66;5063761;28;20431;-84
2024/04/06 00:28:55;;;;;;;;;;;14.80;99.90;;;14.94;79.39;100087.28;5071790;28;19924;-84
2024/04/06 00:31:23;;;;;;;;;;;14.90;99.90;;;14.93;79.26;100091.03;5084845;28;20395;-84
2024/04/06 00:33:50;;;;;;;;;;;14.80;99.90;;;14.92;79.50;100088.59;5082943;28;19975;-84
2024/04/06 00:36:18;;;;;;;;;;;14.80;99.90;;;14.93;79.86;100084.84;5084536;28;19924;-84
2024/04/06 00:38:45;;;;;;;;;;;14.80;99.90;;;14.92;79.88;100077.84;5085349;28;19931;-84
2024/04/06 00:41:12;;;;;;;;;;;14.80;99.90;;;14.91;79.77;100068.19;5084737;28;19931;-84
2024/04/06 00:43:38;;;;;;;;;;;14.80;99.90;;;14.92;79.76;100075.97;5084867;28;19942;-84
2024/04/06 00:46:10;;;;;;;;;;;14.70;99.90;;;14.90;79.90;100078.09;5083002;28;20359;-84
2024/04/06 00:48:36;;;;;;;;;;;14.70;99.90;;;14.91;80.06;100073.53;5062574;28;20334;-84
2024/04/06 00:51:07;;;;;;;;;;;14.70;99.90;;;14.91;80.26;100078.91;5064252;28;20010;-84
2024/04/06 00:53:33;;;;;;;;;;;14.70;99.90;;;14.91;80.22;100089.66;5072569;28;19954;-83
2024/04/06 00:56:01;;;;;;;;;;;14.70;99.90;;;14.90;80.13;100082.66;5082454;28;19980;-84
2024/04/06 00:58:28;;;;;;;;;;;14.70;99.90;;;14.90;79.99;100088.84;5081938;28;19924;-84
2024/04/06 01:00:56;;;;;;;;;;;14.70;99.90;;;14.89;80.37;100094.47;5045860;28;19925;-84
2024/04/06 01:03:26;;;;;;;;;;;14.80;99.90;;;14.90;80.50;100090.72;5062653;28;19980;-84
2024/04/06 01:05:53;;;;;;;;;;;14.80;99.90;;;14.91;80.40;100101.22;5044714;28;19928;-84
2024/04/06 01:08:19;;;;;;;;;;;14.70;99.90;;;14.90;80.14;100091.53;5062359;28;19971;-84
2024/04/06 01:10:46;;;;;;;;;;;14.70;99.90;;;14.89;80.39;100087.22;5062616;28;19947;-84
2024/04/06 01:13:12;;;;;;;;;;;14.70;99.90;;;14.90;80.57;100096.09;5063264;28;19988;-84
2024/04/06 01:15:40;;;;;;;;;;;14.80;99.90;;;14.91;80.52;100100.41;5062977;28;19929;-84
2024/04/06 01:18:06;;;;;;;;;;;14.80;99.90;;;14.91;80.53;100095.03;5063356;28;19925;-84
2024/04/06 01:20:41;;;;;;;;;;;14.70;99.90;;;14.86;80.78;100098.47;5061933;28;19932;-84
2024/04/06 01:23:08;;;;;;;;;;;14.70;99.90;;;14.85;80.71;100101.41;5061934;28;19984;-84
2024/04/06 01:25:38;;;;;;;;;;;14.80;99.90;;;14.78;81.24;100098.88;5063259;28;19925;-84
2024/04/06 01:28:04;;;;;;;;;;;14.80;99.90;;;14.81;81.19;100102.94;5064172;28;19971;-84
2024/04/06 01:30:32;;;;;;;;;;;14.80;99.90;;;14.84;81.07;100097.09;5061338;28;19924;-84
2024/04/06 01:32:58;;;;;;;;;;;14.80;99.90;;;14.85;81.06;100104.91;5073287;28;19946;-84
2024/04/06 01:35:28;;;;;;;;;;;14.80;99.90;;;14.87;80.98;100102.75;5081185;28;19984;-84
2024/04/06 01:37:54;;;;;;;;;;;14.80;99.90;;;14.89;80.89;100107.91;5083872;28;20023;-84
2024/04/06 01:40:24;;;;;;;;;;;14.80;99.90;;;14.86;80.91;100098.47;5082331;28;19924;-84
2024/04/06 01:42:52;;;;;;;;;;;14.80;99.90;;;14.88;81.01;100106.25;5084238;28;19925;-84
2024/04/06 01:45:19;;;;;;;;;;;14.80;99.90;;;14.84;81.15;100110.53;5098297;28;19931;-84
2024/04/06 01:47:46;;;;;;;;;;;14.80;99.90;;;14.84;81.54;100110.53;5047388;28;19925;-84
2024/04/06 01:50:13;;;;;;;;;;;14.70;99.90;;;14.86;81.42;100109.19;5061743;28;19928;-84
2024/04/06 01:52:39;;;;;;;;;;;14.70;99.90;;;14.86;81.14;100109.19;5061440;28;19925;-84
2024/04/06 01:55:07;;;;;;;;;;;14.80;99.90;;;14.89;80.91;100105.22;5061051;28;20375;-84
2024/04/06 01:57:34;;;;;;;;;;;14.80;99.90;;;14.87;81.11;100110.00;5062337;28;19929;-84
2024/04/06 02:00:05;;;;;;;;;;;14.80;99.90;;;14.80;81.05;100104.00;5045622;28;19931;-84
2024/04/06 02:02:38;;;;;;;;;;;14.80;99.90;;;14.85;80.99;100101.41;5062261;28;20038;-84
2024/04/06 02:05:07;;;;;;;;;;;14.80;99.90;;;14.87;81.13;100101.94;5063378;28;19925;-84
2024/04/06 02:07:33;;;;;;;;;;;14.80;99.90;;;14.87;81.00;100091.22;5063340;28;19956;-84
2024/04/06 02:10:00;;;;;;;;;;;14.90;99.90;;;14.88;81.18;100088.28;5061575;28;20311;-84
2024/04/06 02:12:27;;;;;;;;;;;14.90;99.90;;;14.90;81.27;100093.41;5063444;28;19968;-83
2024/04/06 02:14:55;;;;;;;;;;;14.80;99.90;;;14.90;80.91;100088.03;5066442;28;20291;-84
2024/04/06 02:17:23;;;;;;;;;;;14.90;99.90;;;14.90;80.83;100088.03;5046538;28;19925;-84
2024/04/06 02:19:50;;;;;;;;;;;14.90;99.90;;;14.90;80.54;100093.41;5045161;28;19931;-84
2024/04/06 02:22:18;;;;;;;;;;;14.80;99.90;;;14.87;80.69;100100.06;5061659;28;19924;-84
2024/04/06 02:24:45;;;;;;;;;;;14.80;99.90;;;14.86;80.77;100103.03;5061559;28;20497;-84
2024/04/06 02:27:12;;;;;;;;;;;14.80;99.90;;;14.86;80.77;100106.50;5044581;28;19932;-84
2024/04/06 02:29:40;;;;;;;;;;;14.80;99.90;;;14.88;80.76;100104.41;5060549;28;19925;-84
2024/04/06 02:32:09;;;;;;;;;;;14.80;99.90;;;14.89;80.84;100105.22;5061887;28;19925;-84
2024/04/06 02:34:37;;;;;;;;;;;14.80;99.90;;;14.88;80.85;100093.66;5010186;28;19924;-84
2024/04/06 02:37:04;;;;;;;;;;;14.70;99.90;;;14.87;80.74;100093.91;5060369;28;19925;-84
2024/04/06 02:39:31;;;;;;;;;;;14.70;99.90;;;14.87;80.65;100094.69;5060176;28;19932;-84
2024/04/06 02:41:57;;;;;;;;;;;14.70;99.90;;;14.87;80.58;100088.53;5070549;28;19933;-84
2024/04/06 02:44:25;;;;;;;;;;;14.70;99.90;;;14.83;80.51;100088.19;5081910;28;19954;-84
2024/04/06 02:46:51;;;;;;;;;;;14.70;99.90;;;14.81;80.49;100093.03;5063560;28;19931;-84
2024/04/06 02:49:19;;;;;;;;;;;14.70;99.90;;;14.80;80.52;100096.78;5078979;28;19969;-83
2024/04/06 02:51:47;;;;;;;;;;;14.70;99.90;;;14.82;80.35;100093.81;5080967;28;19960;-84
2024/04/06 02:54:14;;;;;;;;;;;14.70;99.90;;;14.82;80.27;100083.09;5080287;28;19924;-84
2024/04/06 02:56:40;;;;;;;;;;;14.60;99.90;;;14.80;80.21;100082.53;5079535;28;19925;-84
2024/04/06 02:59:08;;;;;;;;;;;14.60;99.90;;;14.77;80.25;100078.47;5080064;28;19932;-84
2024/04/06 03:01:34;;;;;;;;;;;14.60;99.90;;;14.76;80.29;100071.47;5091519;28;20395;-84
2024/04/06 03:04:01;;;;;;;;;;;14.60;99.90;;;14.77;79.99;100040.06;5042388;28;20023;-84
2024/04/06 03:06:27;;;;;;;;;;;14.60;99.90;;;14.77;79.81;100046.25;5061375;28;19925;-84
2024/04/06 03:08:56;;;;;;;;;;;14.50;99.90;;;14.77;80.02;100045.44;5061206;28;20303;-84
2024/04/06 03:11:23;;;;;;;;;;;14.50;99.90;;;14.78;79.88;100041.69;5078482;28;19950;-84
2024/04/06 03:13:50;;;;;;;;;;;14.60;99.90;;;14.76;79.88;100033.91;5063758;28;19925;-84
2024/04/06 03:16:16;;;;;;;;;;;14.60;99.90;;;14.75;79.74;100034.16;5080609;28;19950;-84
2024/04/06 03:18:44;;;;;;;;;;;14.50;99.90;;;14.72;79.72;100035.44;5081323;28;19924;-84
2024/04/06 03:21:11;;;;;;;;;;;14.50;99.90;;;14.72;79.71;100026.59;5081012;28;20022;-84
2024/04/06 03:23:38;;;;;;;;;;;14.50;99.90;;;14.68;79.44;100021.72;5075048;28;19929;-84
2024/04/06 03:26:06;;;;;;;;;;;14.40;99.90;;;14.65;79.48;100019.53;5060355;28;19948;-84
2024/04/06 03:28:33;;;;;;;;;;;14.40;99.90;;;14.63;79.47;100024.31;5059387;28;19925;-84
2024/04/06 03:30:59;;;;;;;;;;;14.40;99.90;;;14.63;79.47;100024.31;5060678;28;19925;-84
2024/04/06 03:33:26;;;;;;;;;;;14.40;99.90;;;14.62;79.63;100038.81;5059184;28;20015;-83
2024/04/06 03:35:53;;;;;;;;;;;14.40;99.90;;;14.61;79.62;100049.81;5058455;28;19959;-84
2024/04/06 03:38:20;;;;;;;;;;;14.40;99.90;;;14.59;79.46;100049.22;5051450;28;19924;-84
2024/04/06 03:40:48;;;;;;;;;;;14.30;99.90;;;14.56;79.49;100047.88;5081120;28;19932;-84
2024/04/06 03:43:16;;;;;;;;;;;14.30;99.90;;;14.53;79.28;100048.34;5078545;28;19929;-84
2024/04/06 03:45:43;;;;;;;;;;;14.30;99.90;;;14.50;79.09;100048.06;5078757;28;19925;-83
2024/04/06 03:48:10;;;;;;;;;;;14.20;99.90;;;14.50;79.29;100053.41;5093971;28;19925;-84
2024/04/06 03:50:37;;;;;;;;;;;14.20;99.90;;;14.49;79.29;100059.81;5042040;28;20383;-84
2024/04/06 03:53:05;;;;;;;;;;;14.20;99.90;;;14.49;79.42;100081.28;5075934;28;20115;-84
2024/04/06 03:55:34;;;;;;;;;;;14.20;99.90;;;14.47;79.30;100094.13;5066795;28;19925;-84
2024/04/06 03:58:00;;;;;;;;;;;14.20;99.90;;;14.44;79.48;100079.31;5067772;28;19925;-84
2024/04/06 04:00:29;;;;;;;;;;;14.10;99.90;;;14.45;79.54;100088.19;5073617;28;19960;-84
2024/04/06 04:02:55;;;;;;;;;;;14.10;99.90;;;14.45;79.55;100088.19;5068293;28;19925;-84
2024/04/06 04:05:22;;;;;;;;;;;14.20;99.90;;;14.42;79.50;100082.25;5084281;28;19973;-83
2024/04/06 04:07:48;;;;;;;;;;;14.10;99.90;;;14.41;79.67;100077.13;5086341;28;19925;-84
2024/04/06 04:10:16;;;;;;;;;;;14.10;99.90;;;14.42;79.51;100081.44;5100790;28;20386;-84
2024/04/06 04:12:42;;;;;;;;;;;14.10;99.90;;;14.43;79.35;100091.91;5044508;28;19932;-84
2024/04/06 04:15:09;;;;;;;;;;;14.10;99.90;;;14.42;79.25;100081.44;5047568;28;19964;-84
2024/04/06 04:17:37;;;;;;;;;;;14.20;99.90;;;14.41;79.22;100082.50;5067711;28;19964;-84
2024/04/06 04:20:08;;;;;;;;;;;14.10;99.90;;;14.40;79.25;100087.06;5048413;28;19925;-84
2024/04/06 04:22:35;;;;;;;;;;;14.10;99.90;;;14.40;79.16;100079.00;5067505;28;19931;-84
2024/04/06 04:25:02;;;;;;;;;;;14.10;99.90;;;14.38;79.35;100072.25;5066018;28;20379;-84
2024/04/06 04:27:31;;;;;;;;;;;14.10;99.90;;;14.37;79.17;100058.03;5066411;28;19924;-84
2024/04/06 04:29:59;;;;;;;;;;;14.10;99.90;;;14.34;79.29;100063.88;5067183;28;19931;-84
2024/04/06 04:32:25;;;;;;;;;;;14.10;99.90;;;14.34;79.38;100060.38;5065971;28;19995;-84
2024/04/06 04:34:54;;;;;;;;;;;14.10;99.90;;;14.36;79.25;100055.59;5064659;28;20023;-84
2024/04/06 04:37:20;;;;;;;;;;;14.10;99.90;;;14.35;79.05;100049.44;5063477;28;19925;-84
2024/04/06 04:39:47;;;;;;;;;;;14.10;99.90;;;14.34;79.03;100052.34;5047031;28;19929;-84
2024/04/06 04:42:15;;;;;;;;;;;14.10;99.90;;;14.33;78.83;100048.84;5080563;28;19928;-83
2024/04/06 04:44:42;;;;;;;;;;;14.10;99.90;;;14.34;78.83;100052.34;5066023;28;20019;-83
2024/04/06 04:47:09;;;;;;;;;;;14.10;99.90;;;14.35;78.80;100044.06;5066541;28;20031;-84
2024/04/06 04:49:36;;;;;;;;;;;14.10;99.90;;;14.34;78.58;100041.59;5063981;28;19932;-84
2024/04/06 04:52:04;;;;;;;;;;;14.10;99.90;;;14.35;78.38;100043.25;5064531;28;19975;-84
2024/04/06 04:54:31;;;;;;;;;;;14.10;99.90;;;14.36;78.42;100047.56;5066357;28;19925;-84
2024/04/06 04:56:57;;;;;;;;;;;14.20;99.90;;;14.37;77.87;100044.63;5085248;28;20469;-84
2024/04/06 04:59:25;;;;;;;;;;;14.20;99.90;;;14.38;77.95;100040.88;5084474;28;19928;-84
2024/04/06 05:01:51;;;;;;;;;;;14.20;99.90;;;14.40;78.01;100040.63;5084908;28;19993;-84
2024/04/06 05:04:19;;;;;;;;;;;14.20;99.90;;;14.38;77.86;100040.06;5081029;28;20011;-84
2024/04/06 05:06:45;;;;;;;;;;;14.20;99.90;;;14.39;77.69;100050.53;5080100;28;20432;-84
2024/04/06 05:09:15;;;;;;;;;;;14.20;99.90;;;14.41;77.76;100047.63;5075886;28;19925;-83
2024/04/06 05:11:42;;;;;;;;;;;14.20;99.90;;;14.43;77.60;100062.41;5043865;28;19932;-84
2024/04/06 05:14:10;;;;;;;;;;;14.20;99.90;;;14.43;77.72;100062.41;5059567;28;19931;-84
2024/04/06 05:16:37;;;;;;;;;;;14.30;99.90;;;14.44;77.62;100060.53;5060674;28;20406;-84
2024/04/06 05:19:07;;;;;;;;;;;14.20;99.90;;;14.45;77.48;100067.53;5059908;28;19960;-84
2024/04/06 05:21:33;;;;;;;;;;;14.30;99.90;;;14.46;77.45;100068.34;5058036;28;19929;-88
2024/04/06 05:24:04;;;;;;;;;;;14.30;99.90;;;14.49;76.91;100062.50;5032221;28;19924;-88
2024/04/06 05:26:31;;;;;;;;;;;14.30;99.90;;;14.53;76.81;100052.91;5056879;28;20016;-88
2024/04/06 05:28:58;;;;;;;;;;;14.40;99.90;;;14.56;76.76;100044.38;5076278;28;20390;-88
2024/04/06 05:31:25;;;;;;;;;;;14.40;99.90;;;14.59;76.86;100055.44;5075257;28;19931;-89
2024/04/06 05:33:52;;;;;;;;;;;14.50;99.90;;;14.64;76.76;100046.59;5075299;28;19946;-88
2024/04/06 05:36:19;;;;;;;;;;;14.60;99.90;;;14.67;76.39;100035.38;5075265;28;19974;-89
2024/04/06 05:38:46;;;;;;;;;;;14.60;99.90;;;14.68;76.42;100021.72;5058150;28;19925;-88
2024/04/06 05:41:12;;;;;;;;;;;14.70;99.90;;;14.75;76.07;100028.78;5055071;28;19928;-88
2024/04/06 05:43:41;;;;;;;;;;;14.80;99.90;;;14.80;75.90;100028.84;5021407;28;19929;-89
2024/04/06 05:46:08;;;;;;;;;;;15.10;99.90;;;14.84;75.88;100036.16;5055773;28;19924;-89
2024/04/06 05:48:35;;;;;;;;;;;15.50;99.90;;;14.89;76.17;100044.28;5038359;28;19929;-89
2024/04/06 05:51:01;;;;;;;;;;;15.70;99.90;;;14.96;75.46;100044.06;5021728;28;20367;-89
2024/04/06 05:53:28;;;;;;;;;;;15.70;99.90;;;15.01;75.45;100041.44;5091247;28;19925;-90
2024/04/06 05:55:54;;;;;;;;;;;15.60;99.90;;;15.09;75.00;100037.50;5074236;28;19925;-84
2024/04/06 05:58:22;;;;;;;;;;;15.60;99.90;;;15.15;74.99;100031.13;5077901;28;19939;-83
2024/04/06 06:00:49;;;;;;;;;;;15.60;99.90;;;15.20;75.08;100020.44;5077559;28;19925;-82
2024/04/06 06:03:17;;;;;;;;;;;15.60;99.90;;;15.22;74.80;100015.59;5077239;28;19946;-82
2024/04/06 06:05:43;;;;;;;;;;;15.60;99.90;;;15.26;74.64;100011.34;5078176;28;19972;-82
2024/04/06 06:08:10;;;;;;;;;;;15.60;99.90;;;15.27;73.70;99996.84;5078769;28;19976;-82
2024/04/06 06:10:38;;;;;;;;;;;15.60;99.90;;;15.29;73.49;99994.75;5078406;28;20572;-83
2024/04/06 06:13:05;;;;;;;;;;;15.60;99.90;;;15.30;73.66;99996.34;5078870;28;19935;-83
2024/04/06 06:15:31;;;;;;;;;;;15.60;99.90;;;15.30;73.19;100006.28;5076773;28;19988;-83
2024/04/06 06:18:00;;;;;;;;;;;15.60;99.90;;;15.30;73.21;100014.34;5076169;28;19967;-83
2024/04/06 06:20:26;;;;;;;;;;;15.50;99.90;;;15.32;73.53;100017.59;5058838;28;19946;-82
2024/04/06 06:22:53;;;;;;;;;;;15.50;99.90;;;15.32;73.22;100029.16;5077917;28;19936;-83
2024/04/06 06:25:20;;;;;;;;;;;15.50;99.90;;;15.33;73.15;100027.28;5078176;28;20444;-83
2024/04/06 06:27:47;;;;;;;;;;;15.50;99.90;;;15.35;73.24;100035.91;5059365;28;19925;-87
2024/04/06 06:30:13;;;;;;;;;;;15.50;99.90;;;15.40;73.09;100036.75;5074809;28;19928;-87
2024/04/06 06:32:40;;;;;;;;;;;15.60;99.90;;;15.46;73.49;100033.06;5073807;28;20454;-89
2024/04/06 06:35:09;;;;;;;;;;;15.60;99.90;;;15.50;73.57;100027.19;5075241;28;19928;-89
2024/04/06 06:37:37;;;;;;;;;;;15.70;99.90;;;15.58;73.37;100016.78;5075120;28;19925;-89
2024/04/06 06:40:04;;;;;;;;;;;15.80;99.90;;;15.69;73.21;100013.13;5057410;28;19924;-87
2024/04/06 06:42:31;;;;;;;;;;;15.90;99.90;;;15.77;73.38;100021.81;5073861;28;20023;-88
2024/04/06 06:44:58;;;;;;;;;;;16.00;99.90;;;15.86;72.74;100021.09;5074635;28;20338;-89
2024/04/06 06:47:25;;;;;;;;;;;16.10;99.90;;;15.86;72.74;100020.25;5056768;28;19928;-89
2024/04/06 06:49:51;;;;;;;;;;;16.10;99.90;;;15.83;72.20;100021.59;5073505;28;19928;-88
2024/04/06 06:52:20;;;;;;;;;;;16.10;99.90;;;15.83;72.19;100023.47;5074904;28;20017;-88
2024/04/06 06:54:48;;;;;;;;;;;16.10;99.90;;;15.83;72.50;100026.16;5090922;28;19924;-84
2024/04/06 06:57:16;;;;;;;;;;;16.10;99.90;;;15.81;72.13;100018.38;5077276;28;19932;-84
2024/04/06 06:59:45;;;;;;;;;;;16.00;99.90;;;15.84;72.17;100020.53;5077918;28;19925;-84
2024/04/06 07:02:12;;;;;;;;;;;16.10;99.90;;;15.84;71.83;100020.53;5076012;28;19924;-86
2024/04/06 07:04:38;;;;;;;;;;;16.10;99.90;;;15.83;71.65;100018.09;5078367;28;19931;-83
2024/04/06 07:07:05;;;;;;;;;;;16.00;99.90;;;15.85;71.38;100024.00;5078136;28;20379;-84
2024/04/06 07:09:33;;;;;;;;;;;16.00;99.90;;;15.89;71.27;100025.94;5073720;28;19925;-84
2024/04/06 07:12:00;;;;;;;;;;;16.10;99.90;;;15.92;71.43;100019.25;5074120;28;20326;-83
2024/04/06 07:14:26;;;;;;;;;;;16.10;99.90;;;15.95;71.65;100007.97;5076904;28;20476;-82
2024/04/06 07:16:54;;;;;;;;;;;16.20;99.90;;;15.96;71.06;100007.72;5076567;28;19924;-82
2024/04/06 07:19:20;;;;;;;;;;;16.20;99.90;;;16.00;71.29;100009.88;5077384;28;19931;-81
2024/04/06 07:21:48;;;;;;;;;;;16.20;99.90;;;16.00;70.71;100017.94;5076466;28;19924;-81
2024/04/06 07:24:14;;;;;;;;;;;16.20;99.90;;;16.00;70.35;100026.81;5077406;28;19931;-81
2024/04/06 07:26:44;;;;;;;;;;;16.20;99.90;;;16.02;70.23;100019.31;5076598;28;20383;-81
2024/04/06 07:29:10;;;;;;;;;;;16.20;99.90;;;16.06;69.71;100011.56;5077492;28;19924;-81
2024/04/06 07:31:37;;;;;;;;;;;16.20;99.90;;;16.27;70.71;100013.28;5076346;28;19924;-81
2024/04/06 07:34:03;;;;;;;;;;;16.50;99.90;;;16.50;69.69;100013.97;5076587;28;20519;-81
2024/04/06 07:36:30;;;;;;;;;;;16.70;99.90;;;16.66;69.78;100023.75;5077079;28;19931;-81
2024/04/06 07:38:57;;;;;;;;;;;16.90;99.90;;;16.78;68.61;100021.66;5059118;28;20023;-82
2024/04/06 07:41:24;;;;;;;;;;;17.00;99.90;;;16.88;69.40;100019.00;5078400;28;19932;-82
2024/04/06 07:43:53;;;;;;;;;;;17.10;99.90;;;16.94;67.66;100017.97;5077666;28;19969;-82
2024/04/06 07:46:20;;;;;;;;;;;17.20;99.90;;;17.09;67.48;100021.78;5078032;28;20363;-82
2024/04/06 07:48:46;;;;;;;;;;;17.40;99.90;;;17.22;67.62;100019.38;5078666;28;19970;-82
2024/04/06 07:51:14;;;;;;;;;;;17.50;99.90;;;17.32;67.75;100015.88;5060254;28;19931;-82
2024/04/06 07:53:40;;;;;;;;;;;17.60;99.90;;;17.46;66.90;100010.78;5078080;28;19925;-83
2024/04/06 07:56:08;;;;;;;;;;;17.70;99.90;;;17.60;65.87;100021.88;5075490;28;19932;-83
2024/04/06 07:58:34;;;;;;;;;;;17.90;99.90;;;17.73;64.23;100005.19;5076083;28;19955;-83
2024/04/06 08:01:04;;;;;;;;;;;18.00;99.90;;;17.81;63.69;100004.63;5058810;28;19928;-83
2024/04/06 08:03:31;;;;;;;;;;;18.10;99.90;;;17.87;62.70;100006.25;5075441;28;19924;-83
2024/04/06 08:06:00;;;;;;;;;;;18.20;99.90;;;17.95;63.60;99994.91;5076139;28;19925;-81
2024/04/06 08:08:28;;;;;;;;;;;18.20;99.90;;;18.02;63.82;100000.03;5076328;28;19931;-81
2024/04/06 08:10:57;;;;;;;;;;;18.30;99.90;;;18.12;62.66;100001.91;5075534;28;19929;-81
2024/04/06 08:13:23;;;;;;;;;;;18.40;99.90;;;18.21;62.48;99989.50;5067294;28;20358;-81
2024/04/06 08:15:51;;;;;;;;;;;18.50;99.90;;;18.28;60.61;99987.31;5054679;28;19925;-82
2024/04/06 08:18:18;;;;;;;;;;;18.60;99.90;;;18.30;60.63;99979.75;5059116;28;19928;-82
2024/04/06 08:20:47;;;;;;;;;;;18.60;99.90;;;18.39;60.65;99979.97;5089424;28;19924;-81
2024/04/06 08:23:17;;;;;;;;;;;18.70;99.90;;;18.45;62.16;99982.41;5053248;28;19925;-81
2024/04/06 08:25:45;;;;;;;;;;;18.80;99.90;;;18.56;61.41;99982.38;5055116;28;19929;-81
2024/04/06 08:28:12;;;;;;;;;;;18.90;99.90;;;18.59;61.31;99979.09;5056019;28;19932;-81
2024/04/06 08:30:39;;;;;;;;;;;18.90;99.90;;;18.62;61.36;99978.56;5046349;28;19925;-81
2024/04/06 08:33:06;;;;;;;;;;;19.00;99.90;;;18.75;59.62;99978.78;5056161;28;20019;-80
2024/04/06 08:35:37;;;;;;;;;;;19.00;99.90;;;18.76;59.35;99977.69;5019551;28;20019;-81
2024/04/06 08:38:07;;;;;;;;;;;19.10;99.90;;;18.82;59.87;99973.09;5075394;28;20342;-81
2024/04/06 08:40:38;;;;;;;;;;;19.10;99.90;;;18.90;59.97;99967.09;5076012;28;19924;-81
2024/04/06 08:43:08;;;;;;;;;;;19.20;99.90;;;18.95;58.65;99977.09;5076025;28;19932;-81
2024/04/06 08:45:35;;;;;;;;;;;19.30;99.90;;;18.97;58.21;99970.28;5061057;28;19936;-81
2024/04/06 08:48:02;;;;;;;;;;;19.30;99.90;;;19.03;58.05;99974.59;5059023;28;19924;-81
2024/04/06 08:50:30;;;;;;;;;;;19.40;99.90;;;19.06;57.59;99967.81;5064884;28;20314;-81
2024/04/06 08:52:58;;;;;;;;;;;19.40;99.90;;;19.07;58.58;99971.31;5074916;28;20516;-81
2024/04/06 08:55:26;;;;;;;;;;;19.40;99.90;;;19.11;57.70;99964.28;5063356;28;19928;-81
2024/04/06 08:57:52;;;;;;;;;;;19.50;99.90;;;19.23;54.39;99972.88;5062905;28;19976;-81
2024/04/06 09:00:26;;;;;;;;;;;19.50;99.90;;;19.27;56.29;99974.69;5078307;28;19947;-81
2024/04/06 09:02:53;;;;;;;;;;;19.60;99.90;;;19.23;55.64;99964.75;5061734;28;19948;-81
2024/04/06 09:05:21;;;;;;;;;;;19.60;99.90;;;19.30;54.77;99970.63;5058671;28;19988;-81
2024/04/06 09:07:48;;;;;;;;;;;19.60;99.90;;;19.40;54.95;99956.22;5041226;28;19932;-81
2024/04/06 09:10:17;;;;;;;;;;;19.70;99.90;;;19.54;56.16;99958.00;5056695;28;19964;-81
2024/04/06 09:12:43;;;;;;;;;;;19.80;99.90;;;19.54;52.45;99944.47;5056459;28;19932;-81
2024/04/06 09:15:15;;;;;;;;;;;19.90;99.90;;;19.54;53.21;99935.56;5066576;28;20391;-81
2024/04/06 09:17:42;;;;;;;;;;;19.90;99.90;;;19.55;53.09;99932.56;5079091;28;19974;-81
2024/04/06 09:20:13;;;;;;;;;;;19.90;99.90;;;19.68;52.43;99930.34;5076921;28;19925;-81
2024/04/06 09:22:41;;;;;;;;;;;20.00;99.90;;;19.82;53.65;99934.00;5076747;28;20015;-81
2024/04/06 09:25:08;;;;;;;;;;;20.10;99.90;;;19.77;51.80;99934.84;5077724;28;20302;-81
2024/04/06 09:27:42;;;;;;;;;;;20.10;99.90;;;19.85;52.50;99938.00;5078294;28;19928;-81
2024/04/06 09:30:11;;;;;;;;;;;20.20;99.90;;;19.79;51.97;99931.84;5078094;28;19925;-81
2024/04/06 09:32:39;;;;;;;;;;;20.10;99.90;;;19.76;52.04;99933.25;5079633;28;19932;-81
2024/04/06 09:35:07;;;;;;;;;;;20.10;99.90;;;19.92;49.93;99931.19;5057143;28;19928;-81
2024/04/06 09:37:36;;;;;;;;;;;20.20;99.90;;;19.99;49.57;99930.84;5040328;28;20016;-81
2024/04/06 09:40:05;;;;;;;;;;;20.30;99.90;;;19.96;49.86;99924.09;5056280;28;19955;-81
2024/04/06 09:42:32;;;;;;;;;;;20.30;99.90;;;20.11;49.60;99928.56;5068679;28;19931;-81
2024/04/06 09:45:02;;;;;;;;;;;20.40;99.90;;;20.13;47.90;99920.13;5058805;28;20008;-81
2024/04/06 09:47:29;;;;;;;;;;;20.50;99.90;;;20.16;48.58;99911.44;5058283;28;19925;-81
2024/04/06 09:49:57;;;;;;;;;;;20.50;99.90;;;20.24;48.62;99906.19;5056611;28;19932;-81
2024/04/06 09:52:24;;;;;;;;;;;20.60;99.90;;;20.28;46.83;99901.00;5057565;28;20020;-81
2024/04/06 09:54:52;;;;;;;;;;;20.60;99.90;;;20.33;47.98;99900.94;5056345;28;19925;-81
2024/04/06 09:57:20;;;;;;;;;;;20.60;99.90;;;20.41;47.05;99894.06;5056664;28;20319;-81
2024/04/06 09:59:47;;;;;;;;;;;20.70;99.90;;;20.42;46.64;99887.56;5056775;28;19925;-81
2024/04/06 10:02:22;;;;;;;;;;;20.70;99.90;;;20.42;47.47;99874.81;5067069;28;20407;-81
2024/04/06 10:04:56;;;;;;;;;;;20.80;99.90;;;20.43;48.80;99872.91;5077298;28;19925;-81
2024/04/06 10:07:27;;;;;;;;;;;20.80;99.90;;;20.51;45.71;99867.69;5076021;28;19928;-81
2024/04/06 10:10:00;;;;;;;;;;;20.80;99.90;;;20.62;45.97;99862.91;5078124;28;19924;-81
2024/04/06 10:12:36;;;;;;;;;;;20.90;99.90;;;20.72;44.98;99856.56;5066857;28;19924;-81
2024/04/06 10:15:08;;;;;;;;;;;21.10;99.90;;;20.74;45.59;99844.34;5056175;28;19929;-81
2024/04/06 10:17:43;;;;;;;;;;;21.10;99.90;;;20.83;44.46;99842.53;5056892;28;19929;-81
2024/04/06 10:20:13;;;;;;;;;;;21.10;99.90;;;20.88;44.68;99849.00;5056724;28;19932;-82
2024/04/06 10:22:53;;;;;;;;;;;21.20;99.90;;;20.76;45.33;99842.13;5048866;28;20311;-81
2024/04/06 10:25:26;;;;;;;;;;;21.10;99.90;;;20.73;44.66;99842.69;5075275;28;20039;-81
2024/04/06 10:27:59;;;;;;;;;;;21.10;99.90;;;20.64;44.50;99846.38;5076458;28;19974;-85
2024/04/06 10:30:30;;;;;;;;;;;21.00;99.90;;;20.58;46.14;99840.22;5075225;28;20353;-85
2024/04/06 10:32:57;;;;;;;;;;;20.90;99.90;;;20.55;46.66;99838.13;5090893;28;19964;-85
2024/04/06 10:35:28;;;;;;;;;;;20.90;99.90;;;20.45;46.34;99840.94;5041294;28;19932;-82
2024/04/06 10:37:55;;;;;;;;;;;20.80;99.90;;;20.47;46.49;99846.88;5075459;28;20358;-82
2024/04/06 10:40:27;;;;;;;;;;;20.80;99.90;;;20.49;45.26;99848.19;5076296;28;20454;-81
2024/04/06 10:42:53;;;;;;;;;;;20.80;99.90;;;20.52;46.67;99842.19;5074933;28;19924;-81
2024/04/06 10:45:20;;;;;;;;;;;20.80;99.90;;;20.66;47.06;99846.91;5070723;28;20418;-81
2024/04/06 10:47:47;;;;;;;;;;;20.90;99.90;;;20.65;46.06;99856.13;5061247;28;19955;-81
2024/04/06 10:50:16;;;;;;;;;;;21.00;99.90;;;20.77;45.70;99853.75;5074873;28;20383;-81
2024/04/06 10:52:42;;;;;;;;;;;21.10;99.90;;;20.79;44.86;99863.22;5090904;28;19933;-81
2024/04/06 10:55:15;;;;;;;;;;;21.10;99.90;;;21.05;44.18;99835.72;5075967;28;20422;-82
2024/04/06 10:57:42;;;;;;;;;;;21.30;99.90;;;21.06;44.68;99846.25;5074778;28;19932;-81
2024/04/06 11:00:13;;;;;;;;;;;21.40;99.90;;;21.21;43.78;99836.25;5075866;28;20015;-82
2024/04/06 11:02:40;;;;;;;;;;;21.60;98.90;;;21.33;44.14;99837.44;5062845;28;19932;-82
2024/04/06 11:05:10;;;;;;;;;;;21.70;98.90;;;21.41;44.17;99833.22;5053986;28;20392;-82
2024/04/06 11:07:39;;;;;;;;;;;21.70;98.80;;;21.50;43.56;99830.63;5055579;28;20295;-82
2024/04/06 11:10:07;;;;;;;;;;;21.80;97.50;;;21.65;42.58;99834.97;5060140;28;19928;-81
2024/04/06 11:12:36;;;;;;;;;;;22.00;94.30;;;21.67;41.95;99830.03;5073385;28;19968;-82
2024/04/06 11:15:07;;;;;;;;;;;22.00;92.00;;;21.79;42.08;99830.34;5055366;28;19924;-81